120 км

Карта отелей и гостиниц, располагающихся рядом с аэропортом 120 км :

120 км Томская область 60° 8' 21.9012" N, 78° 3' 33.5988" E
120 км Томская область 60° 8' 21.9012" N, 78° 3' 33.5988" E
Код аэродрома ИКАО
HDU6
Код аэродрома RU
ХДУ6
Координаты
N60.13942° E078.05933°
Превышение над уровнем моря
72
Основная полоса
Курс магнитный
Длина основной ВПП
Ширина основной ВПП
Покрытие основной ВПП
Освещение ВПП
Тип: 
Вертодром
Класс аэродрома: 
Принадлежность: 
ГА
Статус: 
Действующий
Сайт: 
E-mail аэродрома: 
Страна: 
Россия
Регион: 
Томская область
Город: 
Дополнительная информация: 

Найти трансфер

С помощью этой формы Вы можете найти трансфер из аэропорта 120 км в город, аэропорт или вокзал:

Карта места

Javascript is required to view this map.

Погода в аэропортах:

Авиационная погода в Витебске

Регион: 
Погода METAR: 
UMII 251600Z 12004G07MPS 3600 -DZ OVC003 02/02 Q1001 R23/290062 TEMPO 2100 BKN002 RMK QBB090
Время наблюдения
2021-01-25T16:00:00Z
Температура C
2.0
Точка росы
2.0
Направление ветра
120
Скорость ветра (узлы)
8
Метео видимость
2.24
Явления погоды
-DZ
Условия полета
LIFR

Авиационная погода в Миккели

Регион: 
Погода METAR: 
EFMI 251850Z AUTO 13005KT 100V180 9999 -SHRA BKN006 OVC033 01/00 Q1000
Время наблюдения
2021-01-25T18:50:00Z
Температура C
1.0
Точка росы
0.0
Направление ветра
130
Скорость ветра (узлы)
5
Метео видимость
6.21
Явления погоды
-SHRA
Условия полета
IFR

Авиационная погода в Якутске

Регион: 
Погода METAR: 
UEEE 251830Z 32001MPS 0200 0150NE R23L/0550N FG NSC M51/M57 Q1043 R23L/450150 NOSIG RMK QFE773
Время наблюдения
2021-01-25T18:30:00Z
Температура C
-51.0
Точка росы
-57.0
Направление ветра
320
Скорость ветра (узлы)
2
Метео видимость
0.12
Явления погоды
FG
Условия полета
LIFR
Аэропорт подробнее: 

Авиационная погода в Гостомеле

Регион: 
Погода METAR: 
UKKM 251830Z AUTO 14008MPS 9000 -RA OVC007/// 08/07 Q0993
Время наблюдения
2021-01-25T18:30:00Z
Температура C
8.0
Точка росы
7.0
Направление ветра
140
Скорость ветра (узлы)
16
Метео видимость
5.59
Явления погоды
-RA
Условия полета
IFR
Аэропорт подробнее: